sensor_id;sensor_type;location;lat;lon;timestamp;P1;durP1;ratioP1;P2;durP2;ratioP2
20324;SDS011;10320;49.482;11.256;2023-12-04T00:00:58;22.63;;;15.53;;
20324;SDS011;10320;49.482;11.256;2023-12-04T00:03:24;23.03;;;16.30;;
20324;SDS011;10320;49.482;11.256;2023-12-04T00:05:50;21.50;;;15.60;;
20324;SDS011;10320;49.482;11.256;2023-12-04T00:08:16;20.53;;;14.93;;
20324;SDS011;10320;49.482;11.256;2023-12-04T00:10:42;20.13;;;14.50;;
20324;SDS011;10320;49.482;11.256;2023-12-04T00:13:08;22.80;;;15.47;;
20324;SDS011;10320;49.482;11.256;2023-12-04T00:15:34;21.70;;;15.83;;
20324;SDS011;10320;49.482;11.256;2023-12-04T00:18:00;20.77;;;14.17;;
20324;SDS011;10320;49.482;11.256;2023-12-04T00:20:27;20.43;;;14.80;;
20324;SDS011;10320;49.482;11.256;2023-12-04T00:22:53;20.10;;;15.17;;
20324;SDS011;10320;49.482;11.256;2023-12-04T00:25:19;19.70;;;14.30;;
20324;SDS011;10320;49.482;11.256;2023-12-04T00:27:45;20.97;;;14.60;;
20324;SDS011;10320;49.482;11.256;2023-12-04T00:30:11;20.03;;;14.73;;
20324;SDS011;10320;49.482;11.256;2023-12-04T00:32:37;21.90;;;15.47;;
20324;SDS011;10320;49.482;11.256;2023-12-04T00:35:04;19.20;;;13.77;;
20324;SDS011;10320;49.482;11.256;2023-12-04T00:37:30;20.17;;;14.67;;
20324;SDS011;10320;49.482;11.256;2023-12-04T00:39:56;20.27;;;14.43;;
20324;SDS011;10320;49.482;11.256;2023-12-04T00:42:22;18.83;;;14.67;;
20324;SDS011;10320;49.482;11.256;2023-12-04T00:44:48;20.80;;;14.60;;
20324;SDS011;10320;49.482;11.256;2023-12-04T00:47:15;19.57;;;14.13;;
20324;SDS011;10320;49.482;11.256;2023-12-04T00:49:41;19.73;;;14.60;;
20324;SDS011;10320;49.482;11.256;2023-12-04T00:52:07;21.47;;;14.87;;
20324;SDS011;10320;49.482;11.256;2023-12-04T00:54:33;20.90;;;14.83;;
20324;SDS011;10320;49.482;11.256;2023-12-04T00:56:59;20.03;;;14.93;;
20324;SDS011;10320;49.482;11.256;2023-12-04T00:59:25;21.47;;;15.40;;
20324;SDS011;10320;49.482;11.256;2023-12-04T01:01:51;20.80;;;14.63;;
20324;SDS011;10320;49.482;11.256;2023-12-04T01:04:17;20.00;;;14.93;;
20324;SDS011;10320;49.482;11.256;2023-12-04T01:06:43;20.97;;;14.70;;
20324;SDS011;10320;49.482;11.256;2023-12-04T01:09:09;19.53;;;13.80;;
20324;SDS011;10320;49.482;11.256;2023-12-04T01:11:35;19.93;;;14.70;;
20324;SDS011;10320;49.482;11.256;2023-12-04T01:14:01;21.47;;;14.60;;
20324;SDS011;10320;49.482;11.256;2023-12-04T01:16:28;19.00;;;14.07;;
20324;SDS011;10320;49.482;11.256;2023-12-04T01:18:54;19.40;;;14.87;;
20324;SDS011;10320;49.482;11.256;2023-12-04T01:21:20;21.00;;;14.53;;
20324;SDS011;10320;49.482;11.256;2023-12-04T01:23:46;21.23;;;14.63;;
20324;SDS011;10320;49.482;11.256;2023-12-04T01:26:12;21.13;;;15.30;;
20324;SDS011;10320;49.482;11.256;2023-12-04T01:28:38;20.00;;;14.93;;
20324;SDS011;10320;49.482;11.256;2023-12-04T01:31:04;19.93;;;14.77;;
20324;SDS011;10320;49.482;11.256;2023-12-04T01:33:30;19.43;;;14.77;;
20324;SDS011;10320;49.482;11.256;2023-12-04T01:35:56;20.00;;;14.67;;
20324;SDS011;10320;49.482;11.256;2023-12-04T01:38:22;20.17;;;14.97;;
20324;SDS011;10320;49.482;11.256;2023-12-04T01:40:48;19.80;;;14.53;;
20324;SDS011;10320;49.482;11.256;2023-12-04T01:43:14;20.93;;;14.57;;
20324;SDS011;10320;49.482;11.256;2023-12-04T01:45:41;19.83;;;14.57;;
20324;SDS011;10320;49.482;11.256;2023-12-04T01:48:07;20.27;;;14.53;;
20324;SDS011;10320;49.482;11.256;2023-12-04T01:50:35;21.90;;;15.87;;
20324;SDS011;10320;49.482;11.256;2023-12-04T01:53:01;18.80;;;14.13;;
20324;SDS011;10320;49.482;11.256;2023-12-04T01:55:28;19.80;;;14.83;;
20324;SDS011;10320;49.482;11.256;2023-12-04T01:57:55;20.60;;;14.57;;
20324;SDS011;10320;49.482;11.256;2023-12-04T02:00:21;18.80;;;14.30;;
20324;SDS011;10320;49.482;11.256;2023-12-04T02:02:48;19.00;;;13.43;;
20324;SDS011;10320;49.482;11.256;2023-12-04T02:05:14;19.60;;;14.60;;
20324;SDS011;10320;49.482;11.256;2023-12-04T02:07:40;18.87;;;13.93;;
20324;SDS011;10320;49.482;11.256;2023-12-04T02:10:08;20.77;;;14.73;;
20324;SDS011;10320;49.482;11.256;2023-12-04T02:12:34;20.43;;;14.77;;
20324;SDS011;10320;49.482;11.256;2023-12-04T02:15:00;23.40;;;15.83;;
20324;SDS011;10320;49.482;11.256;2023-12-04T02:17:27;20.80;;;13.90;;
20324;SDS011;10320;49.482;11.256;2023-12-04T02:19:53;21.03;;;15.03;;
20324;SDS011;10320;49.482;11.256;2023-12-04T02:22:20;23.70;;;16.87;;
20324;SDS011;10320;49.482;11.256;2023-12-04T02:24:46;22.27;;;15.73;;
20324;SDS011;10320;49.482;11.256;2023-12-04T02:27:17;21.03;;;14.97;;
20324;SDS011;10320;49.482;11.256;2023-12-04T02:29:46;21.67;;;15.70;;
20324;SDS011;10320;49.482;11.256;2023-12-04T02:32:14;20.30;;;14.73;;
20324;SDS011;10320;49.482;11.256;2023-12-04T02:34:41;19.77;;;14.37;;
20324;SDS011;10320;49.482;11.256;2023-12-04T02:37:09;21.13;;;15.37;;
20324;SDS011;10320;49.482;11.256;2023-12-04T02:39:36;19.77;;;14.43;;
20324;SDS011;10320;49.482;11.256;2023-12-04T02:42:03;21.43;;;15.30;;
20324;SDS011;10320;49.482;11.256;2023-12-04T02:44:29;21.93;;;15.37;;
20324;SDS011;10320;49.482;11.256;2023-12-04T02:46:55;22.17;;;15.53;;
20324;SDS011;10320;49.482;11.256;2023-12-04T02:49:21;21.17;;;14.93;;
20324;SDS011;10320;49.482;11.256;2023-12-04T02:51:47;20.30;;;14.67;;
20324;SDS011;10320;49.482;11.256;2023-12-04T02:54:13;20.67;;;14.70;;
20324;SDS011;10320;49.482;11.256;2023-12-04T02:56:39;22.20;;;15.93;;
20324;SDS011;10320;49.482;11.256;2023-12-04T02:59:05;20.83;;;14.73;;
20324;SDS011;10320;49.482;11.256;2023-12-04T03:01:31;21.43;;;15.80;;
20324;SDS011;10320;49.482;11.256;2023-12-04T03:03:57;19.37;;;14.37;;
20324;SDS011;10320;49.482;11.256;2023-12-04T03:06:23;20.37;;;14.60;;
20324;SDS011;10320;49.482;11.256;2023-12-04T03:08:49;19.13;;;14.47;;
20324;SDS011;10320;49.482;11.256;2023-12-04T03:11:15;19.93;;;14.47;;
20324;SDS011;10320;49.482;11.256;2023-12-04T03:13:42;21.60;;;15.87;;
20324;SDS011;10320;49.482;11.256;2023-12-04T03:16:17;21.80;;;15.20;;
20324;SDS011;10320;49.482;11.256;2023-12-04T03:18:44;21.57;;;16.13;;
20324;SDS011;10320;49.482;11.256;2023-12-04T03:21:10;19.63;;;14.40;;
20324;SDS011;10320;49.482;11.256;2023-12-04T03:23:36;18.90;;;14.63;;
20324;SDS011;10320;49.482;11.256;2023-12-04T03:26:02;19.07;;;13.73;;
20324;SDS011;10320;49.482;11.256;2023-12-04T03:28:29;22.77;;;15.07;;
20324;SDS011;10320;49.482;11.256;2023-12-04T03:31:09;20.17;;;15.20;;
20324;SDS011;10320;49.482;11.256;2023-12-04T03:33:35;21.20;;;14.93;;
20324;SDS011;10320;49.482;11.256;2023-12-04T03:36:01;18.93;;;14.40;;
20324;SDS011;10320;49.482;11.256;2023-12-04T03:38:27;20.37;;;14.83;;
20324;SDS011;10320;49.482;11.256;2023-12-04T03:40:53;20.50;;;15.60;;
20324;SDS011;10320;49.482;11.256;2023-12-04T03:43:19;20.10;;;14.67;;
20324;SDS011;10320;49.482;11.256;2023-12-04T03:45:45;18.87;;;14.30;;
20324;SDS011;10320;49.482;11.256;2023-12-04T03:48:11;21.17;;;14.83;;
20324;SDS011;10320;49.482;11.256;2023-12-04T03:50:37;20.90;;;14.70;;
20324;SDS011;10320;49.482;11.256;2023-12-04T03:53:03;18.83;;;14.43;;
20324;SDS011;10320;49.482;11.256;2023-12-04T03:55:29;20.03;;;14.57;;
20324;SDS011;10320;49.482;11.256;2023-12-04T03:57:56;21.07;;;15.23;;
20324;SDS011;10320;49.482;11.256;2023-12-04T04:00:22;19.13;;;14.30;;
20324;SDS011;10320;49.482;11.256;2023-12-04T04:02:49;19.43;;;15.10;;
20324;SDS011;10320;49.482;11.256;2023-12-04T04:05:15;19.27;;;14.37;;
20324;SDS011;10320;49.482;11.256;2023-12-04T04:07:41;18.87;;;14.43;;
20324;SDS011;10320;49.482;11.256;2023-12-04T04:10:08;19.47;;;14.33;;
20324;SDS011;10320;49.482;11.256;2023-12-04T04:12:34;19.87;;;14.73;;
20324;SDS011;10320;49.482;11.256;2023-12-04T04:15:00;17.97;;;13.90;;
20324;SDS011;10320;49.482;11.256;2023-12-04T04:17:26;17.20;;;13.43;;
20324;SDS011;10320;49.482;11.256;2023-12-04T04:19:53;18.10;;;14.63;;
20324;SDS011;10320;49.482;11.256;2023-12-04T04:22:19;19.57;;;14.27;;
20324;SDS011;10320;49.482;11.256;2023-12-04T04:24:46;17.53;;;13.97;;
20324;SDS011;10320;49.482;11.256;2023-12-04T04:27:12;19.73;;;14.43;;
20324;SDS011;10320;49.482;11.256;2023-12-04T04:29:38;19.47;;;15.07;;
20324;SDS011;10320;49.482;11.256;2023-12-04T04:32:04;19.37;;;14.30;;
20324;SDS011;10320;49.482;11.256;2023-12-04T04:34:30;21.53;;;15.23;;
20324;SDS011;10320;49.482;11.256;2023-12-04T04:36:56;17.90;;;14.00;;
20324;SDS011;10320;49.482;11.256;2023-12-04T04:39:22;19.77;;;15.20;;
20324;SDS011;10320;49.482;11.256;2023-12-04T04:41:48;19.10;;;13.93;;
20324;SDS011;10320;49.482;11.256;2023-12-04T04:44:14;20.23;;;14.73;;
20324;SDS011;10320;49.482;11.256;2023-12-04T04:46:40;21.87;;;15.57;;
20324;SDS011;10320;49.482;11.256;2023-12-04T04:49:06;18.17;;;13.97;;
20324;SDS011;10320;49.482;11.256;2023-12-04T04:51:33;20.67;;;14.40;;
20324;SDS011;10320;49.482;11.256;2023-12-04T04:54:02;20.93;;;14.77;;
20324;SDS011;10320;49.482;11.256;2023-12-04T04:56:29;18.77;;;14.37;;
20324;SDS011;10320;49.482;11.256;2023-12-04T04:58:55;19.33;;;13.60;;
20324;SDS011;10320;49.482;11.256;2023-12-04T05:01:21;20.03;;;14.77;;
20324;SDS011;10320;49.482;11.256;2023-12-04T05:03:47;19.03;;;14.60;;
20324;SDS011;10320;49.482;11.256;2023-12-04T05:06:13;18.83;;;14.27;;
20324;SDS011;10320;49.482;11.256;2023-12-04T05:08:40;18.93;;;14.33;;
20324;SDS011;10320;49.482;11.256;2023-12-04T05:11:06;19.63;;;14.10;;
20324;SDS011;10320;49.482;11.256;2023-12-04T05:13:32;18.53;;;14.10;;
20324;SDS011;10320;49.482;11.256;2023-12-04T05:15:58;19.47;;;14.23;;
20324;SDS011;10320;49.482;11.256;2023-12-04T05:18:25;18.70;;;14.37;;
20324;SDS011;10320;49.482;11.256;2023-12-04T05:20:51;18.43;;;14.37;;
20324;SDS011;10320;49.482;11.256;2023-12-04T05:23:17;17.63;;;13.70;;
20324;SDS011;10320;49.482;11.256;2023-12-04T05:25:43;18.67;;;13.93;;
20324;SDS011;10320;49.482;11.256;2023-12-04T05:28:09;18.83;;;14.40;;
20324;SDS011;10320;49.482;11.256;2023-12-04T05:30:35;18.83;;;14.00;;
20324;SDS011;10320;49.482;11.256;2023-12-04T05:33:01;19.10;;;13.77;;
20324;SDS011;10320;49.482;11.256;2023-12-04T05:35:27;18.23;;;14.60;;
20324;SDS011;10320;49.482;11.256;2023-12-04T05:37:53;19.50;;;15.07;;
20324;SDS011;10320;49.482;11.256;2023-12-04T05:40:19;17.67;;;14.33;;
20324;SDS011;10320;49.482;11.256;2023-12-04T05:42:47;18.00;;;13.63;;
20324;SDS011;10320;49.482;11.256;2023-12-04T05:45:13;17.77;;;14.20;;
20324;SDS011;10320;49.482;11.256;2023-12-04T05:47:39;18.67;;;14.30;;
20324;SDS011;10320;49.482;11.256;2023-12-04T05:50:05;18.00;;;14.27;;
20324;SDS011;10320;49.482;11.256;2023-12-04T05:52:32;16.77;;;13.80;;
20324;SDS011;10320;49.482;11.256;2023-12-04T05:54:58;17.47;;;13.83;;
20324;SDS011;10320;49.482;11.256;2023-12-04T05:57:24;18.47;;;13.73;;
20324;SDS011;10320;49.482;11.256;2023-12-04T05:59:50;17.40;;;13.90;;
20324;SDS011;10320;49.482;11.256;2023-12-04T06:02:16;17.53;;;13.00;;
20324;SDS011;10320;49.482;11.256;2023-12-04T06:04:42;17.27;;;13.50;;
20324;SDS011;10320;49.482;11.256;2023-12-04T06:07:08;16.60;;;13.97;;
20324;SDS011;10320;49.482;11.256;2023-12-04T06:09:34;18.27;;;15.70;;
20324;SDS011;10320;49.482;11.256;2023-12-04T06:12:03;21.60;;;17.53;;
20324;SDS011;10320;49.482;11.256;2023-12-04T06:14:33;41.17;;;31.03;;
20324;SDS011;10320;49.482;11.256;2023-12-04T06:17:00;33.97;;;27.20;;
20324;SDS011;10320;49.482;11.256;2023-12-04T06:19:27;31.87;;;26.33;;
20324;SDS011;10320;49.482;11.256;2023-12-04T06:21:54;47.80;;;38.20;;
20324;SDS011;10320;49.482;11.256;2023-12-04T06:24:20;42.80;;;32.93;;
20324;SDS011;10320;49.482;11.256;2023-12-04T06:26:49;30.50;;;24.57;;
20324;SDS011;10320;49.482;11.256;2023-12-04T06:29:15;25.13;;;21.27;;
20324;SDS011;10320;49.482;11.256;2023-12-04T06:31:42;18.00;;;15.43;;
20324;SDS011;10320;49.482;11.256;2023-12-04T06:34:08;19.20;;;16.17;;
20324;SDS011;10320;49.482;11.256;2023-12-04T06:36:38;17.90;;;14.63;;
20324;SDS011;10320;49.482;11.256;2023-12-04T06:39:07;15.57;;;13.20;;
20324;SDS011;10320;49.482;11.256;2023-12-04T06:41:35;14.70;;;11.97;;
20324;SDS011;10320;49.482;11.256;2023-12-04T06:44:01;15.47;;;13.63;;
20324;SDS011;10320;49.482;11.256;2023-12-04T06:46:28;14.27;;;12.00;;
20324;SDS011;10320;49.482;11.256;2023-12-04T06:48:54;16.53;;;13.03;;
20324;SDS011;10320;49.482;11.256;2023-12-04T06:51:22;14.80;;;12.73;;
20324;SDS011;10320;49.482;11.256;2023-12-04T06:53:48;14.27;;;12.47;;
20324;SDS011;10320;49.482;11.256;2023-12-04T06:56:14;16.50;;;14.10;;
20324;SDS011;10320;49.482;11.256;2023-12-04T06:58:40;23.83;;;18.70;;
20324;SDS011;10320;49.482;11.256;2023-12-04T07:01:06;18.97;;;15.90;;
20324;SDS011;10320;49.482;11.256;2023-12-04T07:03:32;16.73;;;14.87;;
20324;SDS011;10320;49.482;11.256;2023-12-04T07:05:58;14.80;;;12.80;;
20324;SDS011;10320;49.482;11.256;2023-12-04T07:08:25;14.90;;;13.17;;
20324;SDS011;10320;49.482;11.256;2023-12-04T07:10:51;15.10;;;12.63;;
20324;SDS011;10320;49.482;11.256;2023-12-04T07:13:17;14.60;;;11.70;;
20324;SDS011;10320;49.482;11.256;2023-12-04T07:15:44;13.07;;;11.00;;
20324;SDS011;10320;49.482;11.256;2023-12-04T07:18:10;14.30;;;11.57;;
20324;SDS011;10320;49.482;11.256;2023-12-04T07:20:36;13.87;;;11.57;;
20324;SDS011;10320;49.482;11.256;2023-12-04T07:23:02;14.73;;;12.00;;
20324;SDS011;10320;49.482;11.256;2023-12-04T07:25:28;12.47;;;10.83;;
20324;SDS011;10320;49.482;11.256;2023-12-04T07:27:54;12.93;;;11.40;;
20324;SDS011;10320;49.482;11.256;2023-12-04T07:30:22;13.83;;;11.33;;
20324;SDS011;10320;49.482;11.256;2023-12-04T07:32:49;13.30;;;11.40;;
20324;SDS011;10320;49.482;11.256;2023-12-04T07:35:16;12.97;;;11.03;;
20324;SDS011;10320;49.482;11.256;2023-12-04T07:37:43;12.20;;;10.87;;
20324;SDS011;10320;49.482;11.256;2023-12-04T07:40:09;12.60;;;11.13;;
20324;SDS011;10320;49.482;11.256;2023-12-04T07:42:35;12.77;;;11.00;;
20324;SDS011;10320;49.482;11.256;2023-12-04T07:45:02;14.87;;;10.73;;
20324;SDS011;10320;49.482;11.256;2023-12-04T07:47:29;13.97;;;11.07;;
20324;SDS011;10320;49.482;11.256;2023-12-04T07:49:55;12.10;;;10.53;;
20324;SDS011;10320;49.482;11.256;2023-12-04T07:52:21;14.13;;;10.83;;
20324;SDS011;10320;49.482;11.256;2023-12-04T07:54:47;11.63;;;10.40;;
20324;SDS011;10320;49.482;11.256;2023-12-04T07:57:13;11.60;;;9.70;;
20324;SDS011;10320;49.482;11.256;2023-12-04T07:59:39;11.67;;;10.33;;
20324;SDS011;10320;49.482;11.256;2023-12-04T08:02:05;11.47;;;9.53;;
20324;SDS011;10320;49.482;11.256;2023-12-04T08:04:31;12.37;;;10.87;;
20324;SDS011;10320;49.482;11.256;2023-12-04T08:06:57;12.57;;;10.70;;
20324;SDS011;10320;49.482;11.256;2023-12-04T08:09:24;10.60;;;9.50;;
20324;SDS011;10320;49.482;11.256;2023-12-04T08:11:50;11.70;;;10.50;;
20324;SDS011;10320;49.482;11.256;2023-12-04T08:14:16;12.50;;;10.43;;
20324;SDS011;10320;49.482;11.256;2023-12-04T08:16:42;12.03;;;10.83;;
20324;SDS011;10320;49.482;11.256;2023-12-04T08:19:08;11.40;;;10.20;;
20324;SDS011;10320;49.482;11.256;2023-12-04T08:21:34;10.50;;;9.50;;
20324;SDS011;10320;49.482;11.256;2023-12-04T08:24:00;10.37;;;9.37;;
20324;SDS011;10320;49.482;11.256;2023-12-04T08:26:26;10.93;;;9.73;;
20324;SDS011;10320;49.482;11.256;2023-12-04T08:28:52;10.87;;;9.77;;
20324;SDS011;10320;49.482;11.256;2023-12-04T08:31:18;11.53;;;10.33;;
20324;SDS011;10320;49.482;11.256;2023-12-04T08:33:44;11.10;;;10.00;;
20324;SDS011;10320;49.482;11.256;2023-12-04T08:36:11;15.30;;;13.80;;
20324;SDS011;10320;49.482;11.256;2023-12-04T08:38:37;18.90;;;17.00;;
20324;SDS011;10320;49.482;11.256;2023-12-04T08:41:03;14.50;;;13.10;;
20324;SDS011;10320;49.482;11.256;2023-12-04T08:43:29;16.07;;;14.47;;
20324;SDS011;10320;49.482;11.256;2023-12-04T08:45:56;15.83;;;14.23;;
20324;SDS011;10320;49.482;11.256;2023-12-04T08:48:22;14.40;;;13.10;;
20324;SDS011;10320;49.482;11.256;2023-12-04T08:50:48;22.93;;;20.83;;
20324;SDS011;10320;49.482;11.256;2023-12-04T08:53:14;13.23;;;12.00;;
20324;SDS011;10320;49.482;11.256;2023-12-04T08:55:40;11.90;;;10.80;;
20324;SDS011;10320;49.482;11.256;2023-12-04T08:58:06;11.70;;;10.60;;
20324;SDS011;10320;49.482;11.256;2023-12-04T09:00:32;11.93;;;10.83;;
20324;SDS011;10320;49.482;11.256;2023-12-04T09:03:00;10.97;;;9.97;;
20324;SDS011;10320;49.482;11.256;2023-12-04T09:05:27;11.70;;;10.60;;
20324;SDS011;10320;49.482;11.256;2023-12-04T09:07:53;11.70;;;10.60;;
20324;SDS011;10320;49.482;11.256;2023-12-04T09:10:19;10.57;;;9.53;;
20324;SDS011;10320;49.482;11.256;2023-12-04T09:12:45;11.10;;;10.00;;
20324;SDS011;10320;49.482;11.256;2023-12-04T09:15:11;11.13;;;10.03;;
20324;SDS011;10320;49.482;11.256;2023-12-04T09:17:38;10.60;;;9.60;;
20324;SDS011;10320;49.482;11.256;2023-12-04T09:20:04;10.07;;;9.07;;
20324;SDS011;10320;49.482;11.256;2023-12-04T09:22:31;10.00;;;9.00;;
20324;SDS011;10320;49.482;11.256;2023-12-04T09:24:57;10.13;;;9.13;;
20324;SDS011;10320;49.482;11.256;2023-12-04T09:27:23;11.63;;;10.53;;
20324;SDS011;10320;49.482;11.256;2023-12-04T09:29:49;9.90;;;8.97;;
20324;SDS011;10320;49.482;11.256;2023-12-04T09:32:15;9.70;;;8.80;;
20324;SDS011;10320;49.482;11.256;2023-12-04T09:34:41;8.73;;;7.77;;
20324;SDS011;10320;49.482;11.256;2023-12-04T09:37:07;7.23;;;6.53;;
20324;SDS011;10320;49.482;11.256;2023-12-04T09:39:33;7.37;;;6.60;;
20324;SDS011;10320;49.482;11.256;2023-12-04T09:41:59;6.83;;;6.13;;
20324;SDS011;10320;49.482;11.256;2023-12-04T09:44:25;6.90;;;6.20;;
20324;SDS011;10320;49.482;11.256;2023-12-04T09:46:54;7.20;;;6.50;;
20324;SDS011;10320;49.482;11.256;2023-12-04T09:49:20;6.10;;;5.50;;
20324;SDS011;10320;49.482;11.256;2023-12-04T09:51:46;6.37;;;5.77;;
20324;SDS011;10320;49.482;11.256;2023-12-04T09:54:12;6.60;;;6.00;;
20324;SDS011;10320;49.482;11.256;2023-12-04T09:56:41;5.90;;;5.40;;
20324;SDS011;10320;49.482;11.256;2023-12-04T09:59:07;6.97;;;6.27;;
20324;SDS011;10320;49.482;11.256;2023-12-04T10:01:33;6.30;;;5.70;;
20324;SDS011;10320;49.482;11.256;2023-12-04T10:04:02;6.50;;;5.80;;
20324;SDS011;10320;49.482;11.256;2023-12-04T10:06:30;6.20;;;5.60;;
20324;SDS011;10320;49.482;11.256;2023-12-04T10:08:56;6.13;;;5.53;;
20324;SDS011;10320;49.482;11.256;2023-12-04T10:11:26;5.80;;;5.20;;
20324;SDS011;10320;49.482;11.256;2023-12-04T10:13:52;6.27;;;5.67;;
20324;SDS011;10320;49.482;11.256;2023-12-04T10:16:34;7.10;;;6.40;;
20324;SDS011;10320;49.482;11.256;2023-12-04T10:19:17;7.07;;;6.37;;
20324;SDS011;10320;49.482;11.256;2023-12-04T10:21:44;6.60;;;6.00;;
20324;SDS011;10320;49.482;11.256;2023-12-04T10:24:11;6.93;;;6.10;;
20324;SDS011;10320;49.482;11.256;2023-12-04T10:26:37;6.20;;;5.60;;
20324;SDS011;10320;49.482;11.256;2023-12-04T10:29:04;6.47;;;5.80;;
20324;SDS011;10320;49.482;11.256;2023-12-04T10:31:33;6.77;;;6.07;;
20324;SDS011;10320;49.482;11.256;2023-12-04T10:33:59;6.07;;;5.47;;
20324;SDS011;10320;49.482;11.256;2023-12-04T10:36:25;5.70;;;5.10;;
20324;SDS011;10320;49.482;11.256;2023-12-04T10:38:58;5.57;;;5.00;;
20324;SDS011;10320;49.482;11.256;2023-12-04T10:41:29;6.00;;;4.93;;
20324;SDS011;10320;49.482;11.256;2023-12-04T10:43:56;5.93;;;5.33;;
20324;SDS011;10320;49.482;11.256;2023-12-04T10:46:26;5.20;;;4.70;;
20324;SDS011;10320;49.482;11.256;2023-12-04T10:48:53;5.50;;;5.00;;
20324;SDS011;10320;49.482;11.256;2023-12-04T10:51:19;4.93;;;4.53;;
20324;SDS011;10320;49.482;11.256;2023-12-04T10:53:48;5.40;;;4.90;;
20324;SDS011;10320;49.482;11.256;2023-12-04T10:56:18;5.27;;;4.77;;
20324;SDS011;10320;49.482;11.256;2023-12-04T10:58:47;4.63;;;4.23;;
20324;SDS011;10320;49.482;11.256;2023-12-04T11:01:15;5.03;;;4.50;;
20324;SDS011;10320;49.482;11.256;2023-12-04T11:03:47;5.23;;;4.67;;
20324;SDS011;10320;49.482;11.256;2023-12-04T11:06:15;4.77;;;4.23;;
20324;SDS011;10320;49.482;11.256;2023-12-04T11:08:42;4.50;;;4.10;;
20324;SDS011;10320;49.482;11.256;2023-12-04T11:11:10;4.17;;;3.63;;
20324;SDS011;10320;49.482;11.256;2023-12-04T11:13:39;4.50;;;4.10;;
20324;SDS011;10320;49.482;11.256;2023-12-04T11:18:47;4.40;;;4.00;;
20324;SDS011;10320;49.482;11.256;2023-12-04T11:21:15;5.77;;;4.10;;
20324;SDS011;10320;49.482;11.256;2023-12-04T11:23:41;4.80;;;4.30;;
20324;SDS011;10320;49.482;11.256;2023-12-04T11:26:07;4.60;;;4.20;;
20324;SDS011;10320;49.482;11.256;2023-12-04T11:28:34;4.37;;;3.97;;
20324;SDS011;10320;49.482;11.256;2023-12-04T11:31:03;4.77;;;4.00;;
20324;SDS011;10320;49.482;11.256;2023-12-04T11:33:36;4.33;;;3.93;;
20324;SDS011;10320;49.482;11.256;2023-12-04T11:36:10;4.33;;;3.93;;
20324;SDS011;10320;49.482;11.256;2023-12-04T11:38:36;5.00;;;4.43;;
20324;SDS011;10320;49.482;11.256;2023-12-04T11:44:11;5.60;;;5.00;;
20324;SDS011;10320;49.482;11.256;2023-12-04T11:46:56;7.93;;;5.87;;
20324;SDS011;10320;49.482;11.256;2023-12-04T11:49:26;6.53;;;5.70;;
20324;SDS011;10320;49.482;11.256;2023-12-04T11:51:56;7.57;;;6.50;;
20324;SDS011;10320;49.482;11.256;2023-12-04T11:54:22;7.00;;;6.17;;
20324;SDS011;10320;49.482;11.256;2023-12-04T11:57:01;6.77;;;6.07;;
20324;SDS011;10320;49.482;11.256;2023-12-04T11:59:43;7.27;;;6.20;;
20324;SDS011;10320;49.482;11.256;2023-12-04T12:02:10;7.03;;;6.10;;
20324;SDS011;10320;49.482;11.256;2023-12-04T12:04:37;6.70;;;5.97;;
20324;SDS011;10320;49.482;11.256;2023-12-04T12:07:04;6.47;;;5.77;;
20324;SDS011;10320;49.482;11.256;2023-12-04T12:09:31;6.20;;;5.30;;
20324;SDS011;10320;49.482;11.256;2023-12-04T12:12:01;7.03;;;6.30;;
20324;SDS011;10320;49.482;11.256;2023-12-04T12:14:28;6.90;;;6.20;;
20324;SDS011;10320;49.482;11.256;2023-12-04T12:16:54;6.87;;;6.17;;
20324;SDS011;10320;49.482;11.256;2023-12-04T12:19:20;7.53;;;6.67;;
20324;SDS011;10320;49.482;11.256;2023-12-04T12:21:47;7.33;;;6.13;;
20324;SDS011;10320;49.482;11.256;2023-12-04T12:24:14;7.67;;;6.77;;
20324;SDS011;10320;49.482;11.256;2023-12-04T12:26:40;7.67;;;6.77;;
20324;SDS011;10320;49.482;11.256;2023-12-04T12:29:08;7.10;;;6.20;;
20324;SDS011;10320;49.482;11.256;2023-12-04T12:31:34;8.93;;;6.73;;
20324;SDS011;10320;49.482;11.256;2023-12-04T12:34:00;7.70;;;6.60;;
20324;SDS011;10320;49.482;11.256;2023-12-04T12:36:28;7.07;;;6.10;;
20324;SDS011;10320;49.482;11.256;2023-12-04T12:38:54;8.20;;;5.90;;
20324;SDS011;10320;49.482;11.256;2023-12-04T12:41:21;8.30;;;6.73;;
20324;SDS011;10320;49.482;11.256;2023-12-04T12:43:50;9.23;;;7.90;;
20324;SDS011;10320;49.482;11.256;2023-12-04T12:46:17;9.57;;;7.20;;
20324;SDS011;10320;49.482;11.256;2023-12-04T12:48:44;9.10;;;7.00;;
20324;SDS011;10320;49.482;11.256;2023-12-04T12:51:10;7.60;;;6.80;;
20324;SDS011;10320;49.482;11.256;2023-12-04T12:53:36;7.20;;;6.50;;
20324;SDS011;10320;49.482;11.256;2023-12-04T12:56:03;7.70;;;6.70;;
20324;SDS011;10320;49.482;11.256;2023-12-04T12:58:29;7.10;;;6.40;;
20324;SDS011;10320;49.482;11.256;2023-12-04T13:00:56;6.93;;;5.93;;
20324;SDS011;10320;49.482;11.256;2023-12-04T13:03:22;5.10;;;4.60;;
20324;SDS011;10320;49.482;11.256;2023-12-04T13:05:49;5.80;;;4.67;;
20324;SDS011;10320;49.482;11.256;2023-12-04T13:08:15;5.13;;;3.87;;
20324;SDS011;10320;49.482;11.256;2023-12-04T13:10:41;6.27;;;5.00;;
20324;SDS011;10320;49.482;11.256;2023-12-04T13:13:11;5.03;;;4.10;;
20324;SDS011;10320;49.482;11.256;2023-12-04T13:15:37;7.00;;;4.23;;
20324;SDS011;10320;49.482;11.256;2023-12-04T13:18:03;5.57;;;4.70;;
20324;SDS011;10320;49.482;11.256;2023-12-04T13:20:29;6.70;;;5.40;;
20324;SDS011;10320;49.482;11.256;2023-12-04T13:22:55;5.57;;;4.90;;
20324;SDS011;10320;49.482;11.256;2023-12-04T13:25:21;5.90;;;5.30;;
20324;SDS011;10320;49.482;11.256;2023-12-04T13:27:47;7.53;;;6.67;;
20324;SDS011;10320;49.482;11.256;2023-12-04T13:30:14;7.10;;;6.30;;
20324;SDS011;10320;49.482;11.256;2023-12-04T13:32:40;6.50;;;5.57;;
20324;SDS011;10320;49.482;11.256;2023-12-04T13:35:06;7.17;;;6.23;;
20324;SDS011;10320;49.482;11.256;2023-12-04T13:37:35;8.30;;;6.63;;
20324;SDS011;10320;49.482;11.256;2023-12-04T13:40:03;7.43;;;6.70;;
20324;SDS011;10320;49.482;11.256;2023-12-04T13:42:34;7.40;;;6.70;;
20324;SDS011;10320;49.482;11.256;2023-12-04T13:45:19;7.90;;;6.10;;
20324;SDS011;10320;49.482;11.256;2023-12-04T13:47:48;9.80;;;6.30;;
20324;SDS011;10320;49.482;11.256;2023-12-04T13:50:15;6.87;;;6.13;;
20324;SDS011;10320;49.482;11.256;2023-12-04T13:52:41;7.27;;;5.70;;
20324;SDS011;10320;49.482;11.256;2023-12-04T13:55:08;10.20;;;5.83;;
20324;SDS011;10320;49.482;11.256;2023-12-04T13:58:00;6.20;;;5.43;;
20324;SDS011;10320;49.482;11.256;2023-12-04T14:00:56;5.20;;;4.70;;
20324;SDS011;10320;49.482;11.256;2023-12-04T14:03:22;6.57;;;5.40;;
20324;SDS011;10320;49.482;11.256;2023-12-04T14:05:48;5.30;;;4.67;;
20324;SDS011;10320;49.482;11.256;2023-12-04T14:08:15;4.90;;;4.40;;
20324;SDS011;10320;49.482;11.256;2023-12-04T14:10:41;5.53;;;4.23;;
20324;SDS011;10320;49.482;11.256;2023-12-04T14:13:07;5.17;;;4.37;;
20324;SDS011;10320;49.482;11.256;2023-12-04T14:15:33;4.87;;;4.37;;
20324;SDS011;10320;49.482;11.256;2023-12-04T14:17:59;6.40;;;4.40;;
20324;SDS011;10320;49.482;11.256;2023-12-04T14:20:25;5.23;;;4.50;;
20324;SDS011;10320;49.482;11.256;2023-12-04T14:22:51;5.60;;;4.70;;